createdAt,value
2018-06-04T00:00:07.135Z,15.10
2018-06-04T00:02:35.649Z,15.10
2018-06-04T00:05:04.228Z,15.10
2018-06-04T00:07:32.734Z,15.00
2018-06-04T00:10:01.244Z,15.00
2018-06-04T00:18:24.628Z,14.90
2018-06-04T00:20:53.113Z,14.80
2018-06-04T00:23:21.608Z,14.80
2018-06-04T00:25:50.091Z,14.80
2018-06-04T00:28:18.599Z,14.80
2018-06-04T00:30:47.075Z,14.80
2018-06-04T00:33:15.582Z,14.80
2018-06-04T00:35:44.065Z,14.70
2018-06-04T00:38:12.578Z,14.70
2018-06-04T00:40:41.069Z,14.60
2018-06-04T00:43:09.583Z,14.60
2018-06-04T00:45:38.067Z,14.60
2018-06-04T00:48:06.606Z,14.60
2018-06-04T00:50:35.101Z,14.50
2018-06-04T00:53:04.076Z,14.50
2018-06-04T00:55:37.855Z,14.50
2018-06-04T00:58:06.726Z,14.50
2018-06-04T01:00:35.250Z,14.50
2018-06-04T01:03:03.771Z,14.50
2018-06-04T01:05:32.251Z,14.40
2018-06-04T01:08:00.756Z,14.50
2018-06-04T01:10:29.264Z,14.50
2018-06-04T01:12:57.776Z,14.50
2018-06-04T01:15:26.295Z,14.50
2018-06-04T01:17:54.776Z,14.40
2018-06-04T01:20:23.278Z,14.40
2018-06-04T01:22:51.768Z,14.30
2018-06-04T01:25:20.260Z,14.30
2018-06-04T01:27:48.756Z,14.30
2018-06-04T01:30:17.252Z,14.30
2018-06-04T01:32:45.954Z,14.30
2018-06-04T01:35:14.451Z,14.30
2018-06-04T01:37:42.939Z,14.30
2018-06-04T01:40:11.476Z,14.30
2018-06-04T01:42:39.951Z,14.30
2018-06-04T01:45:08.480Z,14.30
2018-06-04T01:47:36.987Z,14.30
2018-06-04T01:50:05.496Z,14.30
2018-06-04T01:52:34.002Z,14.30
2018-06-04T01:55:02.896Z,14.30
2018-06-04T01:57:31.400Z,14.30
2018-06-04T01:59:59.900Z,14.20
2018-06-04T02:02:28.388Z,14.20
2018-06-04T02:04:56.912Z,14.20
2018-06-04T02:07:25.408Z,14.20
2018-06-04T02:09:53.937Z,14.10
2018-06-04T02:12:22.411Z,14.10
2018-06-04T02:14:50.926Z,14.00
2018-06-04T02:17:19.431Z,14.00
2018-06-04T02:19:47.956Z,14.00
2018-06-04T02:22:17.466Z,14.00
2018-06-04T02:24:46.023Z,14.00
2018-06-04T02:27:14.502Z,14.00
2018-06-04T02:29:43.022Z,14.00
2018-06-04T02:32:11.536Z,14.00
2018-06-04T02:34:40.060Z,13.90
2018-06-04T02:37:08.568Z,13.80
2018-06-04T02:39:37.110Z,13.80
2018-06-04T02:42:05.711Z,13.70
2018-06-04T02:44:34.265Z,13.60
2018-06-04T02:47:02.786Z,13.50
2018-06-04T02:49:31.624Z,13.50
2018-06-04T02:52:00.148Z,13.50
2018-06-04T02:54:28.663Z,13.40
2018-06-04T02:56:57.163Z,13.40
2018-06-04T02:59:25.671Z,13.40
2018-06-04T03:01:54.188Z,13.50
2018-06-04T03:04:22.684Z,13.40
2018-06-04T03:06:51.195Z,13.40
2018-06-04T03:09:19.691Z,13.50
2018-06-04T03:11:48.220Z,13.40
2018-06-04T03:14:16.697Z,13.40
2018-06-04T03:16:47.087Z,13.40
2018-06-04T03:19:16.905Z,13.50
2018-06-04T03:21:45.587Z,13.50
2018-06-04T03:24:14.088Z,13.50
2018-06-04T03:26:42.587Z,13.50
2018-06-04T03:29:11.091Z,13.50
2018-06-04T03:31:39.603Z,13.50
2018-06-04T03:34:08.090Z,13.50
2018-06-04T03:36:36.607Z,13.50
2018-06-04T03:39:07.597Z,13.60
2018-06-04T03:41:36.108Z,13.60
2018-06-04T03:44:04.902Z,13.60
2018-06-04T03:46:33.447Z,13.60
2018-06-04T03:49:01.944Z,13.60
2018-06-04T03:51:30.439Z,13.60
2018-06-04T03:53:58.933Z,13.60
2018-06-04T03:56:27.447Z,13.60
2018-06-04T03:58:55.934Z,13.60
2018-06-04T04:01:24.445Z,13.70
2018-06-04T04:03:53.156Z,13.80
2018-06-04T04:06:21.664Z,14.00
2018-06-04T04:08:50.136Z,14.00
2018-06-04T04:11:18.634Z,14.20
2018-06-04T04:13:47.134Z,14.30
2018-06-04T04:16:15.671Z,14.40
2018-06-04T04:18:44.183Z,14.50
2018-06-04T04:21:12.702Z,14.60
2018-06-04T04:23:41.173Z,14.70
2018-06-04T04:26:09.751Z,14.80
2018-06-04T04:28:38.231Z,14.90
2018-06-04T04:31:06.735Z,15.10
2018-06-04T04:33:35.459Z,15.20
2018-06-04T04:36:03.980Z,15.30
2018-06-04T04:38:32.947Z,15.50
2018-06-04T04:41:01.553Z,15.60
2018-06-04T04:43:30.034Z,15.80
2018-06-04T04:45:58.568Z,15.90
2018-06-04T04:48:27.088Z,16.10
2018-06-04T04:53:23.806Z,16.30
2018-06-04T04:55:52.304Z,16.40
2018-06-04T04:58:20.815Z,16.50
2018-06-04T05:00:49.859Z,16.70
2018-06-04T05:03:18.383Z,16.80
2018-06-04T05:05:47.771Z,17.00
2018-06-04T05:08:16.278Z,17.10
2018-06-04T05:10:44.780Z,17.30
2018-06-04T05:13:13.306Z,17.40
2018-06-04T05:15:41.807Z,17.60
2018-06-04T05:18:10.335Z,17.80
2018-06-04T05:20:38.868Z,18.10
2018-06-04T05:23:07.403Z,18.30
2018-06-04T05:25:35.909Z,18.50
2018-06-04T05:28:04.442Z,18.80
2018-06-04T05:30:32.955Z,19.10
2018-06-04T05:33:01.491Z,19.40
2018-06-04T05:35:29.980Z,19.80
2018-06-04T05:37:58.500Z,20.00
2018-06-04T05:40:27.012Z,20.60
2018-06-04T05:42:55.536Z,21.00
2018-06-04T05:45:24.040Z,21.30
2018-06-04T05:47:52.593Z,21.70
2018-06-04T05:50:21.070Z,22.10
2018-06-04T05:52:49.592Z,22.60
2018-06-04T05:55:18.056Z,22.90
2018-06-04T05:57:46.558Z,23.20
2018-06-04T06:00:15.018Z,23.70
2018-06-04T06:02:43.490Z,24.20
2018-06-04T06:05:11.975Z,24.60
2018-06-04T06:07:40.708Z,25.10
2018-06-04T06:10:09.171Z,25.30
2018-06-04T06:12:37.663Z,25.60
2018-06-04T06:15:06.167Z,25.50
2018-06-04T06:17:34.675Z,25.70
2018-06-04T06:20:03.215Z,25.80
2018-06-04T06:22:31.722Z,25.70
2018-06-04T06:25:00.214Z,26.20
2018-06-04T06:27:28.708Z,26.80
2018-06-04T06:29:57.179Z,27.40
2018-06-04T06:32:25.691Z,27.60
2018-06-04T06:34:54.544Z,27.70
2018-06-04T06:37:23.084Z,28.10
2018-06-04T06:39:51.578Z,28.70
2018-06-04T06:42:20.064Z,28.70
2018-06-04T06:44:48.542Z,28.90
2018-06-04T06:47:17.051Z,29.40
2018-06-04T06:49:45.558Z,29.70
2018-06-04T06:52:14.023Z,30.00
2018-06-04T06:54:42.553Z,30.30
2018-06-04T06:57:12.043Z,30.00
2018-06-04T06:59:40.611Z,30.00
2018-06-04T07:02:09.097Z,30.20
2018-06-04T07:04:37.663Z,30.90
2018-06-04T07:07:06.151Z,31.50
2018-06-04T07:09:34.699Z,30.20
2018-06-04T07:12:03.199Z,31.00
2018-06-04T07:14:31.719Z,31.00
2018-06-04T07:17:00.243Z,31.20
2018-06-04T07:19:28.799Z,31.00
2018-06-04T07:21:57.358Z,31.30
2018-06-04T07:24:25.863Z,32.00
2018-06-04T07:26:54.428Z,31.80
2018-06-04T07:29:23.004Z,32.10
2018-06-04T07:31:51.603Z,31.00
2018-06-04T07:34:20.192Z,30.20
2018-06-04T07:36:49.397Z,30.60
2018-06-04T07:39:18.112Z,31.20
2018-06-04T07:41:46.673Z,31.50
2018-06-04T07:44:15.587Z,31.80
2018-06-04T07:46:44.281Z,32.30
2018-06-04T07:49:12.888Z,33.00
2018-06-04T07:51:41.555Z,32.70
2018-06-04T07:54:10.702Z,32.00
2018-06-04T07:56:39.393Z,32.20
2018-06-04T07:59:08.063Z,33.30
2018-06-04T08:01:36.680Z,33.90
2018-06-04T08:04:05.340Z,33.40
2018-06-04T08:06:33.936Z,33.70
2018-06-04T08:09:02.536Z,33.20
2018-06-04T08:11:31.114Z,32.40
2018-06-04T08:13:59.700Z,31.90
2018-06-04T08:16:28.503Z,31.10
2018-06-04T08:18:57.120Z,30.20
2018-06-04T08:21:25.715Z,30.40
2018-06-04T08:23:54.363Z,30.40
2018-06-04T08:26:22.824Z,31.00
2018-06-04T08:28:51.535Z,31.90
2018-06-04T08:31:20.055Z,32.60
2018-06-04T08:33:48.590Z,33.10
2018-06-04T08:36:17.120Z,33.90
2018-06-04T08:38:45.657Z,33.20
2018-06-04T08:41:14.159Z,32.40
2018-06-04T08:43:42.696Z,32.00
2018-06-04T08:46:11.292Z,32.90
2018-06-04T08:48:39.812Z,33.30
2018-06-04T08:51:08.432Z,33.20
2018-06-04T08:53:37.034Z,33.30
2018-06-04T08:56:05.646Z,33.50
2018-06-04T08:58:34.140Z,33.10
2018-06-04T09:01:02.677Z,32.70
2018-06-04T09:03:31.172Z,32.40
2018-06-04T09:05:59.682Z,32.70
2018-06-04T09:08:28.561Z,32.70
2018-06-04T09:10:57.079Z,32.70
2018-06-04T09:13:25.892Z,31.90
2018-06-04T09:15:54.499Z,31.90
2018-06-04T09:20:51.388Z,33.30
2018-06-04T09:23:19.943Z,33.70
2018-06-04T09:25:48.451Z,32.90
2018-06-04T09:28:16.975Z,32.10
2018-06-04T09:30:45.508Z,32.10
2018-06-04T09:33:14.339Z,32.70
2018-06-04T09:35:42.843Z,32.60
2018-06-04T09:38:11.408Z,33.20
2018-06-04T09:40:40.152Z,32.20
2018-06-04T09:43:08.658Z,32.80
2018-06-04T09:45:37.188Z,33.60
2018-06-04T09:48:05.739Z,34.40
2018-06-04T09:50:34.256Z,34.50
2018-06-04T09:53:02.752Z,34.20
2018-06-04T09:55:31.272Z,33.40
2018-06-04T09:57:59.965Z,33.00
2018-06-04T10:00:34.527Z,33.50
2018-06-04T10:03:04.436Z,34.30
2018-06-04T10:05:33.018Z,34.60
2018-06-04T10:08:01.628Z,35.00
2018-06-04T10:10:30.348Z,34.20
2018-06-04T10:12:58.973Z,34.70
2018-06-04T10:15:27.584Z,35.20
2018-06-04T10:17:56.143Z,35.40
2018-06-04T10:20:24.639Z,35.40
2018-06-04T10:22:53.145Z,35.00
2018-06-04T10:25:21.695Z,35.80
2018-06-04T10:27:50.219Z,35.70
2018-06-04T10:30:18.703Z,35.20
2018-06-04T10:32:47.349Z,35.20
2018-06-04T10:35:15.851Z,34.90
2018-06-04T10:37:44.462Z,34.60
2018-06-04T10:40:12.951Z,34.70
2018-06-04T10:42:41.475Z,34.50
2018-06-04T10:45:10.016Z,34.70
2018-06-04T10:47:41.336Z,35.10
2018-06-04T10:50:10.421Z,35.30
2018-06-04T10:52:39.048Z,35.40
2018-06-04T10:55:07.590Z,35.30
2018-06-04T10:57:36.112Z,35.00
2018-06-04T11:00:07.961Z,35.10
2018-06-04T11:02:36.487Z,36.00
2018-06-04T11:05:05.100Z,35.40
2018-06-04T11:07:33.587Z,35.80
2018-06-04T11:10:02.064Z,36.20
2018-06-04T11:12:30.555Z,35.60
2018-06-04T11:17:27.247Z,36.20
2018-06-04T11:19:55.764Z,36.10
2018-06-04T11:22:24.294Z,36.60
2018-06-04T11:24:52.823Z,37.10
2018-06-04T11:27:21.351Z,36.40
2018-06-04T11:29:49.922Z,35.80
2018-06-04T11:35:11.493Z,36.00
2018-06-04T11:37:39.991Z,36.20
2018-06-04T11:40:08.731Z,36.70
2018-06-04T11:42:37.232Z,36.10
2018-06-04T11:45:05.895Z,36.00
2018-06-04T11:47:34.415Z,35.90
2018-06-04T11:50:02.907Z,36.00
2018-06-04T11:52:31.423Z,36.80
2018-06-04T11:54:59.904Z,36.00
2018-06-04T11:57:28.411Z,36.30
2018-06-04T11:59:56.915Z,34.70
2018-06-04T12:02:25.412Z,35.10
2018-06-04T12:04:53.918Z,35.90
2018-06-04T12:07:22.412Z,35.80
2018-06-04T12:09:50.946Z,36.20
2018-06-04T12:12:19.445Z,36.20
2018-06-04T12:14:48.013Z,36.10
2018-06-04T12:17:16.596Z,36.10
2018-06-04T12:19:45.087Z,35.60
2018-06-04T12:22:13.596Z,36.00
2018-06-04T12:24:42.090Z,35.50
2018-06-04T12:27:11.002Z,36.20
2018-06-04T12:29:39.498Z,36.70
2018-06-04T12:32:11.800Z,37.10
2018-06-04T12:34:40.294Z,36.50
2018-06-04T12:37:09.023Z,35.40
2018-06-04T12:39:37.524Z,34.90
2018-06-04T12:42:06.027Z,34.80
2018-06-04T12:44:34.531Z,34.60
2018-06-04T12:47:03.079Z,34.70
2018-06-04T12:49:31.603Z,34.30
2018-06-04T12:52:00.135Z,33.00
2018-06-04T12:54:28.678Z,31.50
2018-06-04T12:56:57.202Z,31.70
2018-06-04T12:59:25.800Z,32.40
2018-06-04T13:01:54.390Z,33.10
2018-06-04T13:04:22.908Z,33.60
2018-06-04T13:06:51.548Z,34.10
2018-06-04T13:09:20.058Z,34.60
2018-06-04T13:11:48.570Z,34.20
2018-06-04T13:14:17.194Z,33.70
2018-06-04T13:16:45.880Z,34.00
2018-06-04T13:19:14.711Z,34.40
2018-06-04T13:21:43.552Z,34.30
2018-06-04T13:24:12.152Z,34.30
2018-06-04T13:26:40.783Z,34.80
2018-06-04T13:29:09.847Z,34.60
2018-06-04T13:31:38.436Z,34.50
2018-06-04T13:34:07.087Z,33.80
2018-06-04T13:36:35.765Z,34.10
2018-06-04T13:39:06.830Z,34.30
2018-06-04T13:41:35.532Z,34.20
2018-06-04T13:44:04.340Z,33.50
2018-06-04T13:46:32.850Z,33.70
2018-06-04T13:49:01.510Z,34.00
2018-06-04T13:51:30.383Z,33.80
2018-06-04T13:53:59.116Z,33.60
2018-06-04T13:56:27.768Z,33.30
2018-06-04T13:58:58.026Z,33.00
2018-06-04T14:01:26.724Z,32.90
2018-06-04T14:03:55.535Z,33.00
2018-06-04T14:06:24.205Z,32.60
2018-06-04T14:08:53.336Z,32.40
2018-06-04T14:11:21.963Z,32.60
2018-06-04T14:13:50.498Z,32.70
2018-06-04T14:16:19.015Z,32.80
2018-06-04T14:18:47.562Z,33.30
2018-06-04T14:21:16.100Z,33.40
2018-06-04T14:23:44.695Z,33.20
2018-06-04T14:26:13.405Z,32.80
2018-06-04T14:28:42.633Z,32.60
2018-06-04T14:31:11.387Z,33.00
2018-06-04T14:33:39.915Z,33.10
2018-06-04T14:36:08.385Z,32.70
2018-06-04T14:38:36.931Z,32.70
2018-06-04T14:41:05.530Z,32.40
2018-06-04T14:43:34.706Z,32.60
2018-06-04T14:46:04.045Z,32.10
2018-06-04T14:48:32.579Z,32.20
2018-06-04T14:51:01.447Z,32.00
2018-06-04T14:53:30.872Z,32.30
2018-06-04T14:56:00.008Z,32.40
2018-06-04T14:58:34.683Z,32.30
2018-06-04T15:03:33.294Z,32.60
2018-06-04T15:06:02.468Z,32.30
2018-06-04T15:08:31.744Z,32.10
2018-06-04T15:11:01.086Z,32.20
2018-06-04T15:13:29.583Z,32.30
2018-06-04T15:15:58.252Z,32.20
2018-06-04T15:18:27.420Z,32.10
2018-06-04T15:20:57.031Z,32.10
2018-06-04T15:23:26.335Z,31.90
2018-06-04T15:25:55.391Z,31.80
2018-06-04T15:28:24.050Z,31.40
2018-06-04T15:30:53.383Z,31.30
2018-06-04T15:33:22.172Z,31.20
2018-06-04T15:35:52.491Z,31.30
2018-06-04T15:38:21.951Z,31.10
2018-06-04T15:40:50.448Z,31.00
2018-06-04T15:43:20.421Z,31.00
2018-06-04T15:47:03.861Z,30.60
2018-06-04T15:49:35.186Z,30.60
2018-06-04T15:52:11.337Z,30.40
2018-06-04T15:57:11.506Z,30.20
2018-06-04T15:59:40.727Z,30.20
2018-06-04T16:02:11.048Z,30.20
2018-06-04T16:04:40.554Z,30.30
2018-06-04T16:07:10.116Z,30.20
2018-06-04T16:09:39.231Z,30.10
2018-06-04T16:12:09.487Z,29.90
2018-06-04T16:14:39.494Z,29.70
2018-06-04T16:17:09.850Z,29.80
2018-06-04T16:19:39.488Z,29.80
2018-06-04T16:22:11.235Z,29.60
2018-06-04T16:24:40.593Z,29.80
2018-06-04T16:27:11.161Z,29.80
2018-06-04T16:29:42.077Z,29.60
2018-06-04T16:32:12.051Z,29.30
2018-06-04T16:34:41.325Z,28.90
2018-06-04T16:37:10.925Z,28.70
2018-06-04T16:39:40.920Z,28.40
2018-06-04T16:42:10.540Z,28.20
2018-06-04T16:44:40.267Z,28.30
2018-06-04T16:47:09.782Z,28.30
2018-06-04T16:49:38.514Z,28.30
2018-06-04T16:52:07.889Z,28.20
2018-06-04T16:54:37.781Z,28.10
2018-06-04T16:59:37.536Z,27.80
2018-06-04T17:02:06.755Z,27.60
2018-06-04T17:04:36.985Z,27.40
2018-06-04T17:07:06.555Z,27.30
2018-06-04T17:09:36.916Z,27.20
2018-06-04T17:12:07.675Z,27.00
2018-06-04T17:14:37.996Z,26.90
2018-06-04T17:17:08.594Z,26.70
2018-06-04T17:19:37.932Z,26.70
2018-06-04T17:22:09.994Z,26.70
2018-06-04T17:24:40.465Z,26.70
2018-06-04T17:27:10.021Z,26.60
2018-06-04T17:29:39.038Z,26.50
2018-06-04T17:32:10.089Z,26.40
2018-06-04T17:34:39.301Z,26.30
2018-06-04T17:37:08.233Z,26.20
2018-06-04T17:39:38.906Z,26.10
2018-06-04T17:42:10.323Z,25.90
2018-06-04T17:44:41.921Z,25.80
2018-06-04T17:47:12.724Z,25.70
2018-06-04T17:49:43.630Z,25.50
2018-06-04T17:52:14.824Z,25.40
2018-06-04T17:54:51.236Z,25.30
2018-06-04T17:57:22.099Z,25.10
2018-06-04T17:59:54.810Z,25.00
2018-06-04T18:02:28.720Z,24.90
2018-06-04T18:05:02.823Z,24.80
2018-06-04T18:07:35.770Z,24.70
2018-06-04T18:10:09.080Z,24.60
2018-06-04T18:12:41.815Z,24.50
2018-06-04T18:15:14.598Z,24.40
2018-06-04T18:17:48.666Z,24.40
2018-06-04T18:20:22.876Z,24.30
2018-06-04T18:25:28.903Z,24.20
2018-06-04T18:28:10.382Z,24.00
2018-06-04T18:30:41.198Z,24.00
2018-06-04T18:33:11.142Z,23.90
2018-06-04T18:35:41.158Z,23.90
2018-06-04T18:38:10.713Z,23.80
2018-06-04T18:40:39.696Z,23.80
2018-06-04T18:43:09.610Z,23.70
2018-06-04T18:45:38.944Z,23.60
2018-06-04T18:48:08.133Z,23.50
2018-06-04T18:50:37.749Z,23.50
2018-06-04T18:53:06.613Z,23.40
2018-06-04T18:55:36.045Z,23.30
2018-06-04T18:58:06.842Z,23.20
2018-06-04T19:00:36.150Z,23.10
2018-06-04T19:03:06.115Z,23.00
2018-06-04T19:05:37.015Z,23.00
2018-06-04T19:08:07.599Z,22.90
2018-06-04T19:10:36.847Z,22.80
2018-06-04T19:13:06.474Z,22.60
2018-06-04T19:15:36.789Z,22.50
2018-06-04T19:18:06.878Z,22.40
2018-06-04T19:20:35.879Z,22.20
2018-06-04T19:23:05.361Z,22.10
2018-06-04T19:25:35.328Z,22.00
2018-06-04T19:28:05.820Z,21.90
2018-06-04T19:30:36.660Z,21.80
2018-06-04T19:33:07.031Z,21.70
2018-06-04T19:35:38.801Z,21.60
2018-06-04T19:38:08.549Z,21.50
2018-06-04T19:40:38.652Z,21.40
2018-06-04T19:43:10.119Z,21.40
2018-06-04T19:45:40.121Z,21.30
2018-06-04T19:48:11.579Z,21.20
2018-06-04T19:50:42.251Z,21.10
2018-06-04T19:53:12.567Z,21.00
2018-06-04T19:58:12.034Z,20.80
2018-06-04T20:00:40.897Z,20.70
2018-06-04T20:03:10.770Z,20.50
2018-06-04T20:05:42.767Z,20.40
2018-06-04T20:08:12.052Z,20.20
2018-06-04T20:10:43.082Z,20.00
2018-06-04T20:13:12.921Z,19.90
2018-06-04T20:15:42.415Z,19.70
2018-06-04T20:18:12.502Z,19.60
2018-06-04T20:20:42.813Z,19.40
2018-06-04T20:23:12.072Z,19.40
2018-06-04T20:25:41.706Z,19.30
2018-06-04T20:28:10.810Z,19.10
2018-06-04T20:30:40.442Z,19.10
2018-06-04T20:33:10.046Z,19.00
2018-06-04T20:35:40.800Z,19.00
2018-06-04T20:40:40.765Z,18.90
2018-06-04T20:43:11.069Z,18.80
2018-06-04T20:45:41.169Z,18.80
2018-06-04T20:48:10.523Z,18.70
2018-06-04T20:50:40.629Z,18.70
2018-06-04T20:53:10.137Z,18.60
2018-06-04T20:58:08.321Z,18.50
2018-06-04T21:00:38.868Z,18.40
2018-06-04T21:03:08.290Z,18.30
2018-06-04T21:05:40.050Z,18.20
2018-06-04T21:08:09.785Z,18.10
2018-06-04T21:10:39.369Z,18.10
2018-06-04T21:13:09.284Z,18.00
2018-06-04T21:15:38.319Z,18.00
2018-06-04T21:18:07.987Z,17.90
2018-06-04T21:20:37.146Z,17.90
2018-06-04T21:23:06.762Z,17.80
2018-06-04T21:25:36.925Z,17.80
2018-06-04T21:28:06.168Z,17.70
2018-06-04T21:30:36.192Z,17.70
2018-06-04T21:33:06.666Z,17.70
2018-06-04T21:35:35.735Z,17.70
2018-06-04T21:38:04.893Z,17.70
2018-06-04T21:40:33.664Z,17.60
2018-06-04T21:43:02.419Z,17.50
2018-06-04T21:45:31.484Z,17.40
2018-06-04T21:48:00.458Z,17.40
2018-06-04T21:50:29.153Z,17.30
2018-06-04T21:52:57.993Z,17.30
2018-06-04T21:55:26.853Z,17.20
2018-06-04T21:57:55.724Z,17.10
2018-06-04T22:00:24.632Z,17.10
2018-06-04T22:02:53.931Z,17.00
2018-06-04T22:05:23.082Z,16.90
2018-06-04T22:07:52.576Z,16.90
2018-06-04T22:10:22.208Z,16.90
2018-06-04T22:12:51.262Z,16.90
2018-06-04T22:15:20.742Z,16.90
2018-06-04T22:17:50.000Z,16.80
2018-06-04T22:20:18.865Z,16.80
2018-06-04T22:22:47.639Z,16.80
2018-06-04T22:25:16.479Z,16.80
2018-06-04T22:27:45.217Z,16.70
2018-06-04T22:30:14.025Z,16.70
2018-06-04T22:32:42.876Z,16.60
2018-06-04T22:35:12.044Z,16.60
2018-06-04T22:37:41.414Z,16.50
2018-06-04T22:40:10.750Z,16.50
2018-06-04T22:42:39.779Z,16.50
2018-06-04T22:45:08.941Z,16.50
2018-06-04T22:47:38.138Z,16.60
2018-06-04T22:50:07.867Z,16.60
2018-06-04T22:52:37.281Z,16.70
2018-06-04T22:55:06.768Z,16.70
2018-06-04T22:57:35.755Z,16.70
2018-06-04T23:00:04.623Z,16.60
2018-06-04T23:02:33.444Z,16.50
2018-06-04T23:05:02.232Z,16.50
2018-06-04T23:07:31.070Z,16.30
2018-06-04T23:09:59.883Z,16.30
2018-06-04T23:12:28.762Z,16.20
2018-06-04T23:14:57.532Z,16.10
2018-06-04T23:17:26.308Z,16.00
2018-06-04T23:19:55.184Z,16.00
2018-06-04T23:22:23.952Z,15.90
2018-06-04T23:24:52.757Z,15.80
2018-06-04T23:27:21.583Z,15.80
2018-06-04T23:29:50.435Z,15.70
2018-06-04T23:32:19.265Z,15.70
2018-06-04T23:34:48.050Z,15.60
2018-06-04T23:37:17.532Z,15.50
2018-06-04T23:39:46.415Z,15.50
2018-06-04T23:42:15.257Z,15.40
2018-06-04T23:44:44.099Z,15.40
2018-06-04T23:47:15.651Z,15.40
2018-06-04T23:49:44.560Z,15.30
2018-06-04T23:52:13.363Z,15.30
2018-06-04T23:54:42.262Z,15.30
2018-06-04T23:57:11.112Z,15.20
2018-06-04T23:59:39.894Z,15.20
